Time;durP1;ratioP1;P1;durP2;ratioP2;P2;SDS_P1;SDS_P2;PMS_P1;PMS_P2;Temp;Humidity;BMP_temperature;BMP_pressure;BME280_temperature;BME280_humidity;BME280_pressure;Samples;Min_cycle;Max_cycle;Signal;HPM_P1;HPM_P2
2021/01/08 00:01:54;;;;;;;11.80;10.10;;;;;;;4.53;69.61;100632.75;5113969;28;20308;-75
2021/01/08 00:04:21;;;;;;;11.83;9.60;;;;;;;4.30;69.80;100632.00;5110663;28;20234;-76
2021/01/08 00:06:46;;;;;;;12.90;10.50;;;;;;;4.00;71.25;100635.28;5108048;28;20549;-75
2021/01/08 00:09:12;;;;;;;11.33;10.13;;;;;;;3.88;72.58;100637.41;5115765;28;20503;-75
2021/01/08 00:11:37;;;;;;;10.90;9.43;;;;;;;4.11;71.29;100645.09;5121620;28;20224;-75
2021/01/08 00:14:03;;;;;;;15.03;9.90;;;;;;;3.94;71.59;100642.81;5121595;28;20336;-74
2021/01/08 00:16:35;;;;;;;11.17;9.80;;;;;;;4.10;71.06;100636.50;5121362;28;20212;-74
2021/01/08 00:19:01;;;;;;;10.43;9.33;;;;;;;4.31;70.58;100633.72;5120980;28;20424;-72
2021/01/08 00:21:42;;;;;;;12.90;9.17;;;;;;;6.93;76.12;100631.56;5108255;28;20520;-62
2021/01/08 00:24:08;;;;;;;12.17;10.17;;;;;;;4.58;68.78;100637.19;5100653;28;20458;-80
2021/01/08 00:26:33;;;;;;;9.47;8.40;;;;;;;4.62;68.81;100636.47;5118587;28;20468;-78
2021/01/08 00:28:59;;;;;;;10.40;8.97;;;;;;;4.50;69.19;100642.09;5121239;28;20461;-82
2021/01/08 00:31:24;;;;;;;10.47;9.20;;;;;;;4.55;69.16;100636.25;5112837;28;20181;-80
2021/01/08 00:33:50;;;;;;;9.57;8.67;;;;;;;4.08;70.16;100643.28;5101224;28;20164;-78
2021/01/08 00:36:15;;;;;;;8.53;7.63;;;;;;;4.20;70.51;100642.81;5100167;28;20180;-78
2021/01/08 00:38:40;;;;;;;10.10;9.00;;;;;;;4.37;69.43;100639.13;5101075;28;20182;-79
2021/01/08 00:41:06;;;;;;;9.83;8.80;;;;;;;4.31;69.10;100640.63;5101131;28;20255;-79
2021/01/08 00:43:31;;;;;;;9.87;8.67;;;;;;;3.84;70.48;100648.47;5101045;28;20202;-80
2021/01/08 00:45:56;;;;;;;9.23;8.33;;;;;;;3.95;70.35;100649.72;5100943;28;20504;-80
2021/01/08 00:48:21;;;;;;;10.33;8.20;;;;;;;4.88;67.69;100647.59;5101174;28;20188;-80
2021/01/08 00:50:47;;;;;;;9.30;8.37;;;;;;;4.80;67.83;100643.91;5100891;28;20168;-79
2021/01/08 00:53:12;;;;;;;9.60;8.53;;;;;;;4.44;68.33;100644.47;5101240;28;20177;-80
2021/01/08 00:55:37;;;;;;;9.37;8.13;;;;;;;4.05;69.14;100648.34;5100976;28;20157;-79
2021/01/08 00:58:03;;;;;;;10.10;8.97;;;;;;;4.16;69.25;100648.72;5100406;28;20168;-80
2021/01/08 01:00:28;;;;;;;10.23;8.73;;;;;;;4.59;67.83;100647.56;5100376;28;20168;-79
2021/01/08 01:02:53;;;;;;;10.30;9.20;;;;;;;4.22;68.96;100643.75;5100824;28;20437;-80
2021/01/08 01:05:19;;;;;;;9.00;8.10;;;;;;;3.81;70.51;100646.66;5100234;28;20173;-81
2021/01/08 01:07:44;;;;;;;8.20;7.40;;;;;;;4.19;69.63;100649.72;5100108;28;20192;-80
2021/01/08 01:10:10;;;;;;;10.87;9.07;;;;;;;4.08;70.54;100650.16;5100606;28;20187;-78
2021/01/08 01:12:35;;;;;;;9.87;8.30;;;;;;;4.39;68.93;100646.91;5100027;28;20184;-79
2021/01/08 01:15:00;;;;;;;9.23;8.30;;;;;;;4.67;68.13;100651.25;5100245;28;20172;-79
2021/01/08 01:17:26;;;;;;;9.23;8.33;;;;;;;4.21;69.13;100653.19;5100557;28;20175;-79
2021/01/08 01:19:52;;;;;;;12.17;10.17;;;;;;;4.18;70.02;100659.94;5099289;28;20176;-80
2021/01/08 01:22:17;;;;;;;8.87;7.50;;;;;;;3.89;69.96;100659.81;5100161;28;20640;-80
2021/01/08 01:24:43;;;;;;;10.33;9.03;;;;;;;4.22;69.53;100664.38;5099904;28;20561;-79
2021/01/08 01:27:08;;;;;;;7.73;6.93;;;;;;;4.13;69.26;100658.94;5082231;28;20196;-81
2021/01/08 01:29:33;;;;;;;7.37;6.57;;;;;;;4.60;67.92;100657.06;5099268;28;20239;-79
2021/01/08 01:31:59;;;;;;;7.97;7.17;;;;;;;3.66;70.60;100672.75;5099972;28;20259;-78
2021/01/08 01:34:24;;;;;;;7.43;6.60;;;;;;;4.09;69.50;100669.97;5099489;28;20503;-79
2021/01/08 01:36:49;;;;;;;6.40;5.80;;;;;;;4.02;68.89;100663.72;5100034;28;20856;-80
2021/01/08 01:39:15;;;;;;;7.17;6.47;;;;;;;3.43;71.91;100673.63;5099930;28;20172;-80
2021/01/08 01:41:41;;;;;;;7.10;6.27;;;;;;;4.22;69.10;100664.38;5099364;28;20172;-79
2021/01/08 01:44:06;;;;;;;7.00;6.30;;;;;;;4.07;69.52;100674.19;5100162;28;20243;-79
2021/01/08 01:46:32;;;;;;;7.20;6.50;;;;;;;3.80;70.82;100680.13;5099710;28;20825;-79
2021/01/08 01:48:57;;;;;;;7.80;6.67;;;;;;;3.99;69.97;100673.91;5098966;28;20211;-80
2021/01/08 01:51:23;;;;;;;7.43;6.60;;;;;;;4.22;70.06;100674.72;5099886;28;20171;-78
2021/01/08 01:53:48;;;;;;;9.40;7.30;;;;;;;4.22;71.41;100680.75;5099779;28;20172;-81
2021/01/08 01:56:14;;;;;;;15.93;11.97;;;;;;;4.31;69.00;100681.91;5098375;28;20244;-79
2021/01/08 01:58:40;;;;;;;70.87;38.50;;;;;;;4.33;68.85;100683.72;5104028;28;20220;-80
2021/01/08 02:01:05;;;;;;;21.80;14.13;;;;;;;4.83;68.09;100687.91;5108509;28;20190;-79
2021/01/08 02:03:45;;;;;;;10.37;8.50;;;;;;;4.71;67.22;100686.69;5118655;28;20537;-79
2021/01/08 02:06:12;;;;;;;9.40;7.80;;;;;;;4.45;68.26;100688.41;5117828;28;20198;-79
2021/01/08 02:08:42;;;;;;;7.67;6.60;;;;;;;3.65;71.05;100691.66;5111120;28;20541;-79
2021/01/08 02:11:13;;;;;;;9.90;8.30;;;;;;;4.14;69.54;100691.63;5119066;28;20421;-79
2021/01/08 02:13:55;;;;;;;8.80;7.63;;;;;;;4.12;69.81;100693.28;5116983;28;20485;-79
2021/01/08 02:16:22;;;;;;;8.20;6.70;;;;;;;3.96;71.21;100692.72;5116799;28;20741;-78
2021/01/08 02:18:50;;;;;;;8.67;7.47;;;;;;;4.36;69.80;100696.72;5117426;28;20416;-79
2021/01/08 02:21:24;;;;;;;7.40;6.60;;;;;;;4.30;68.70;100698.19;5117131;28;20401;-77
2021/01/08 02:24:08;;;;;;;6.97;6.27;;;;;;;4.73;68.25;100697.06;5118459;28;20795;-80
2021/01/08 02:26:33;;;;;;;9.40;7.63;;;;;;;4.23;69.30;100697.13;5122471;28;20492;-78
2021/01/08 02:29:00;;;;;;;8.37;6.73;;;;;;;4.35;69.00;100697.53;5118491;28;20495;-78
2021/01/08 02:31:25;;;;;;;7.57;6.77;;;;;;;4.43;68.63;100696.94;5117148;28;20167;-79
2021/01/08 02:33:51;;;;;;;7.77;7.07;;;;;;;4.04;69.92;100703.34;5118362;28;20398;-78
2021/01/08 02:36:17;;;;;;;8.53;7.10;;;;;;;4.60;67.80;100702.66;5116742;28;20168;-80
2021/01/08 02:38:43;;;;;;;7.97;7.17;;;;;;;4.38;67.57;100694.19;5117317;28;20849;-78
2021/01/08 02:41:08;;;;;;;8.23;7.33;;;;;;;4.32;68.45;100697.44;5117571;28;20171;-80
2021/01/08 02:43:34;;;;;;;8.13;6.80;;;;;;;4.37;68.56;100698.47;5119143;28;20409;-78
2021/01/08 02:46:00;;;;;;;8.43;7.30;;;;;;;3.61;72.12;100700.06;5123380;28;20168;-78
2021/01/08 02:48:26;;;;;;;8.10;7.13;;;;;;;4.23;69.45;100702.28;5122913;28;20644;-78
2021/01/08 02:50:51;;;;;;;8.40;7.50;;;;;;;4.03;70.93;100701.56;5118105;28;20421;-78
2021/01/08 02:53:20;;;;;;;8.37;7.30;;;;;;;3.99;69.73;100702.28;5118296;27;20170;-77
2021/01/08 02:55:52;;;;;;;8.50;7.40;;;;;;;3.93;69.38;100700.38;5121236;27;20195;-78
2021/01/08 02:58:18;;;;;;;8.77;7.87;;;;;;;4.23;68.91;100694.53;5119492;27;20712;-80
2021/01/08 03:00:44;;;;;;;8.87;7.10;;;;;;;4.38;69.16;100705.41;5119736;27;20451;-80
2021/01/08 03:03:09;;;;;;;8.00;7.20;;;;;;;4.29;68.19;100702.50;5097108;28;20427;-78
2021/01/08 03:05:35;;;;;;;9.40;7.53;;;;;;;4.60;68.36;100712.97;5108286;27;20182;-78
2021/01/08 03:08:00;;;;;;;11.40;8.43;;;;;;;4.54;67.91;100709.34;5112122;28;20203;-78
2021/01/08 03:10:26;;;;;;;8.93;7.57;;;;;;;4.47;67.99;100706.53;5109225;27;20167;-78
2021/01/08 03:12:59;;;;;;;8.90;8.00;;;;;;;4.27;68.76;100711.88;5097077;28;20188;-77
2021/01/08 03:15:25;;;;;;;11.07;8.60;;;;;;;4.09;69.08;100721.56;5097088;28;20251;-78
2021/01/08 03:17:51;;;;;;;10.47;8.67;;;;;;;4.35;68.73;100713.00;5097715;28;20513;-78
2021/01/08 03:20:16;;;;;;;10.80;8.40;;;;;;;4.45;68.31;100718.50;5100036;28;20200;-78
2021/01/08 03:22:41;;;;;;;9.53;7.30;;;;;;;4.54;67.64;100719.69;5102323;28;20422;-78
2021/01/08 03:25:07;;;;;;;11.37;8.40;;;;;;;4.29;68.52;100714.50;5102380;28;20208;-77
2021/01/08 03:27:32;;;;;;;10.33;8.07;;;;;;;4.51;67.71;100717.00;5101732;28;20167;-77
2021/01/08 03:29:58;;;;;;;9.57;8.00;;;;;;;3.73;70.44;100724.56;5136495;27;20209;-77
2021/01/08 03:32:23;;;;;;;9.23;8.23;;;;;;;3.87;70.45;100720.78;5142023;27;20182;-77
2021/01/08 03:34:48;;;;;;;9.93;8.40;;;;;;;4.11;69.10;100719.91;5142175;27;20282;-78
2021/01/08 03:37:14;;;;;;;10.03;8.03;;;;;;;4.25;68.63;100716.13;5142787;27;20159;-80
2021/01/08 03:39:40;;;;;;;8.60;7.60;;;;;;;4.09;68.84;100721.56;5142723;27;20170;-78
2021/01/08 03:42:05;;;;;;;11.07;8.60;;;;;;;4.33;68.18;100718.94;5142409;27;20810;-79
2021/01/08 03:44:30;;;;;;;8.50;7.60;;;;;;;4.29;68.63;100714.50;5142745;27;20171;-78
2021/01/08 03:46:56;;;;;;;10.57;8.40;;;;;;;4.15;68.91;100721.78;5142725;27;20159;-78
2021/01/08 03:49:21;;;;;;;12.60;8.83;;;;;;;3.78;70.67;100718.75;5142010;27;20250;-78
2021/01/08 03:51:46;;;;;;;9.17;8.13;;;;;;;3.74;69.21;100716.88;5142267;27;20205;-78
2021/01/08 03:54:12;;;;;;;10.10;7.80;;;;;;;3.67;70.85;100726.09;5142766;27;20159;-80
2021/01/08 03:56:37;;;;;;;9.53;7.83;;;;;;;4.29;68.38;100715.41;5142481;27;20178;-78
2021/01/08 03:59:02;;;;;;;9.30;8.13;;;;;;;4.21;68.15;100722.88;5141798;27;20175;-78
2021/01/08 04:01:27;;;;;;;10.13;8.60;;;;;;;4.17;69.90;100725.31;5142842;27;20502;-79
2021/01/08 04:03:53;;;;;;;12.90;8.63;;;;;;;3.81;69.83;100723.13;5142430;27;20171;-79
2021/01/08 04:06:18;;;;;;;10.13;8.27;;;;;;;4.13;69.53;100711.41;5142849;27;20173;-81
2021/01/08 04:08:43;;;;;;;12.23;9.37;;;;;;;3.95;70.07;100719.38;5143039;27;20438;-80
2021/01/08 04:11:09;;;;;;;11.57;9.00;;;;;;;3.64;71.16;100722.50;5142506;27;20181;-79
2021/01/08 04:13:34;;;;;;;11.57;8.87;;;;;;;3.74;71.06;100722.03;5142438;27;20254;-79
2021/01/08 04:16:00;;;;;;;11.53;8.83;;;;;;;3.49;71.51;100715.06;5143104;27;20163;-80
2021/01/08 04:18:25;;;;;;;11.83;9.03;;;;;;;3.81;70.98;100720.56;5141999;27;20464;-79
2021/01/08 04:20:50;;;;;;;15.33;10.10;;;;;;;3.58;71.61;100730.88;5141945;27;20163;-78
2021/01/08 04:23:16;;;;;;;12.57;9.90;;;;;;;3.51;72.20;100729.78;5142034;27;20219;-78
2021/01/08 04:25:41;;;;;;;12.43;9.47;;;;;;;3.50;71.56;100730.59;5141520;27;20583;-76
2021/01/08 04:28:06;;;;;;;13.53;10.77;;;;;;;3.15;73.70;100731.81;5124672;27;20539;-76
2021/01/08 04:30:31;;;;;;;12.90;9.67;;;;;;;3.01;74.08;100724.41;5111647;28;20456;-79
2021/01/08 04:32:57;;;;;;;12.13;9.37;;;;;;;3.33;73.02;100734.25;5109004;28;20260;-78
2021/01/08 04:35:22;;;;;;;13.87;10.53;;;;;;;2.61;75.33;100735.66;5101523;28;20161;-80
2021/01/08 04:37:47;;;;;;;13.77;9.67;;;;;;;2.90;74.18;100732.53;5100098;28;20188;-78
2021/01/08 04:40:13;;;;;;;14.23;9.63;;;;;;;3.42;72.25;100729.41;5100950;28;20168;-79
2021/01/08 04:42:38;;;;;;;15.20;9.30;;;;;;;3.67;71.28;100733.81;5101348;28;20179;-80
2021/01/08 04:45:04;;;;;;;11.70;9.67;;;;;;;3.36;72.49;100729.19;5100855;28;20176;-80
2021/01/08 04:47:32;;;;;;;14.03;10.27;;;;;;;3.06;73.74;100737.47;5100680;28;20168;-79
2021/01/08 04:49:57;;;;;;;14.23;9.73;;;;;;;2.99;74.38;100733.78;5100918;28;20410;-79
2021/01/08 04:52:23;;;;;;;16.60;11.20;;;;;;;3.48;72.72;100741.69;5100648;28;20524;-79
2021/01/08 04:54:48;;;;;;;17.17;10.90;;;;;;;3.09;74.01;100750.47;5100066;28;20164;-79
2021/01/08 04:57:14;;;;;;;14.90;10.07;;;;;;;2.94;74.33;100750.72;5100288;28;20193;-80
2021/01/08 04:59:40;;;;;;;16.20;11.40;;;;;;;2.70;74.79;100748.91;5099367;28;20269;-79
2021/01/08 05:02:05;;;;;;;14.63;10.67;;;;;;;3.03;74.10;100745.06;5099716;28;20501;-80
2021/01/08 05:04:31;;;;;;;16.00;11.13;;;;;;;2.87;74.76;100746.16;5099888;28;20156;-80
2021/01/08 05:06:56;;;;;;;17.27;11.63;;;;;;;2.95;74.84;100739.63;5100336;28;20429;-80
2021/01/08 05:09:22;;;;;;;16.20;10.87;;;;;;;2.64;75.57;100756.38;5100320;28;20203;-77
2021/01/08 05:11:47;;;;;;;15.30;10.37;;;;;;;2.98;74.69;100750.03;5099910;28;20184;-78
2021/01/08 05:14:14;;;;;;;18.13;12.67;;;;;;;2.99;74.36;100749.22;5100246;28;20172;-78
2021/01/08 05:16:40;;;;;;;18.23;12.13;;;;;;;3.24;73.31;100752.78;5100048;28;20172;-80
2021/01/08 05:19:05;;;;;;;18.70;11.60;;;;;;;3.49;73.19;100758.88;5100353;28;20422;-80
2021/01/08 05:21:32;;;;;;;18.83;12.30;;;;;;;2.88;74.66;100760.78;5099401;28;20218;-80
2021/01/08 05:23:59;;;;;;;16.60;12.03;;;;;;;2.33;76.61;100767.94;5099768;28;20228;-78
2021/01/08 05:26:25;;;;;;;15.97;11.30;;;;;;;2.52;76.06;100769.59;5099843;28;20414;-80
2021/01/08 05:28:52;;;;;;;16.97;11.30;;;;;;;3.07;73.47;100759.81;5099653;28;20543;-79
2021/01/08 05:31:19;;;;;;;15.27;10.10;;;;;;;2.96;74.06;100764.53;5099515;28;20172;-80
2021/01/08 05:33:44;;;;;;;15.43;12.13;;;;;;;2.90;74.09;100764.31;5100300;28;20452;-78
2021/01/08 05:36:13;;;;;;;18.87;12.20;;;;;;;3.00;74.01;100773.28;5099328;28;20705;-79
2021/01/08 05:38:41;;;;;;;16.90;11.30;;;;;;;3.43;72.93;100775.00;5099771;28;20267;-79
2021/01/08 05:41:08;;;;;;;15.63;10.50;;;;;;;3.81;71.23;100773.00;5099775;28;20438;-78
2021/01/08 05:43:34;;;;;;;17.00;10.87;;;;;;;3.38;71.58;100773.94;5099151;28;20442;-78
2021/01/08 05:46:20;;;;;;;16.67;11.60;;;;;;;3.20;73.01;100774.94;5099598;28;20410;-79
2021/01/08 05:48:47;;;;;;;17.53;12.47;;;;;;;3.04;74.71;100780.31;5099305;28;20199;-79
2021/01/08 05:51:15;;;;;;;17.53;12.23;;;;;;;3.48;73.21;100776.06;5099417;28;20411;-80
2021/01/08 05:53:40;;;;;;;17.20;11.70;;;;;;;3.23;73.06;100773.34;5098918;28;20448;-78
2021/01/08 05:56:05;;;;;;;19.93;13.17;;;;;;;3.34;73.19;100775.53;5081946;28;20552;-80
2021/01/08 05:58:32;;;;;;;20.33;13.07;;;;;;;3.15;72.89;100776.50;5099891;28;20161;-80
2021/01/08 06:00:59;;;;;;;17.83;11.20;;;;;;;2.86;73.97;100778.72;5098555;28;20556;-81
2021/01/08 06:03:25;;;;;;;18.00;12.27;;;;;;;3.25;73.14;100781.97;5099582;28;20414;-81
2021/01/08 06:05:58;;;;;;;17.83;11.90;;;;;;;3.48;72.47;100777.78;5100015;28;20414;-80
2021/01/08 06:08:28;;;;;;;18.10;12.80;;;;;;;3.43;72.40;100781.84;5098333;28;20458;-80
2021/01/08 06:10:56;;;;;;;22.87;20.33;;;;;;;3.94;71.08;100782.09;5099233;28;20816;-80
2021/01/08 06:13:25;;;;;;;16.60;11.80;;;;;;;2.76;73.68;100786.00;5098505;28;20870;-80
2021/01/08 06:15:51;;;;;;;17.47;13.00;;;;;;;3.22;72.89;100785.34;5099150;28;20787;-82
2021/01/08 06:18:19;;;;;;;17.23;12.17;;;;;;;3.94;70.94;100788.94;5099538;28;20478;-81
2021/01/08 06:20:45;;;;;;;16.00;12.27;;;;;;;3.91;70.29;100792.31;5098465;28;20550;-79
2021/01/08 06:23:10;;;;;;;17.00;12.63;;;;;;;3.35;71.72;100790.16;5098826;28;20521;-80
2021/01/08 06:25:37;;;;;;;21.93;13.00;;;;;;;3.43;72.77;100789.59;5098428;28;20264;-78
2021/01/08 06:28:04;;;;;;;20.43;14.00;;;;;;;3.65;71.33;100786.13;5098490;28;20223;-79
2021/01/08 06:30:33;;;;;;;16.43;12.60;;;;;;;3.90;70.47;100785.38;5100196;28;20425;-79
2021/01/08 06:33:03;;;;;;;18.73;12.53;;;;;;;3.75;70.80;100784.78;5098239;28;20508;-79
2021/01/08 06:35:33;;;;;;;18.93;13.70;;;;;;;4.13;70.04;100785.34;5098612;28;20418;-79
2021/01/08 06:37:59;;;;;;;17.37;12.17;;;;;;;3.95;70.23;100780.38;5098484;28;20414;-80
2021/01/08 06:40:37;;;;;;;17.47;12.70;;;;;;;3.88;70.80;100781.84;5098608;28;20410;-79
2021/01/08 06:43:03;;;;;;;19.47;14.40;;;;;;;3.75;71.72;100788.25;5097881;28;20467;-80
2021/01/08 06:45:29;;;;;;;18.30;12.70;;;;;;;4.04;70.42;100788.47;5097904;28;20422;-79
2021/01/08 06:48:00;;;;;;;20.00;13.33;;;;;;;4.27;69.36;100791.00;5099063;28;20495;-79
2021/01/08 06:50:26;;;;;;;18.27;13.33;;;;;;;3.95;70.25;100795.84;5097806;28;20426;-80
2021/01/08 06:52:51;;;;;;;18.00;12.90;;;;;;;4.13;70.35;100803.41;5097746;28;20475;-80
2021/01/08 06:55:19;;;;;;;19.47;13.80;;;;;;;4.30;69.29;100799.75;5098564;28;20241;-79
2021/01/08 06:57:52;;;;;;;19.43;13.70;;;;;;;3.92;71.11;100806.06;5098694;28;20191;-80
2021/01/08 07:00:21;;;;;;;19.00;14.00;;;;;;;3.95;70.76;100799.34;5098467;28;20796;-79
2021/01/08 07:02:49;;;;;;;20.63;13.93;;;;;;;3.95;70.84;100809.66;5098396;28;20452;-80
2021/01/08 07:05:18;;;;;;;18.67;13.80;;;;;;;4.05;70.54;100816.03;5097888;28;20462;-79
2021/01/08 07:07:44;;;;;;;20.80;14.40;;;;;;;4.02;70.20;100814.22;5097852;28;20438;-79
2021/01/08 07:10:10;;;;;;;21.60;14.37;;;;;;;4.09;69.80;100823.06;5097486;28;20739;-79
2021/01/08 07:12:41;;;;;;;20.17;14.37;;;;;;;4.11;70.08;100818.81;5097140;28;20245;-79
2021/01/08 07:15:08;;;;;;;20.00;13.63;;;;;;;4.19;69.98;100829.44;5098476;28;20406;-80
2021/01/08 07:17:34;;;;;;;19.97;13.60;;;;;;;4.15;69.58;100828.44;5098345;28;20498;-80
2021/01/08 07:20:00;;;;;;;20.83;14.17;;;;;;;4.07;70.17;100835.00;5098201;28;20745;-79
2021/01/08 07:22:31;;;;;;;18.90;13.90;;;;;;;4.03;70.50;100833.13;5098604;28;20259;-81
2021/01/08 07:24:57;;;;;;;19.67;14.03;;;;;;;4.33;69.69;100840.25;5080576;28;20560;-80
2021/01/08 07:27:25;;;;;;;24.10;15.13;;;;;;;4.36;70.31;100837.81;5113977;28;20446;-80
2021/01/08 07:29:58;;;;;;;19.10;13.83;;;;;;;4.36;69.21;100837.81;5097438;28;20473;-81
2021/01/08 07:32:47;;;;;;;18.73;13.70;;;;;;;3.61;71.66;100848.72;5097762;28;20413;-80
2021/01/08 07:35:14;;;;;;;24.67;14.50;;;;;;;3.91;71.65;100855.88;5097997;28;20418;-80
2021/01/08 07:37:58;;;;;;;23.07;14.97;;;;;;;4.21;70.09;100853.59;5097796;28;20420;-78
2021/01/08 07:40:37;;;;;;;21.87;13.40;;;;;;;4.21;70.41;100851.03;5097819;28;20406;-81
2021/01/08 07:43:12;;;;;;;19.53;13.20;;;;;;;4.64;68.47;100849.09;5098100;28;20500;-81
2021/01/08 07:45:51;;;;;;;21.87;14.43;;;;;;;4.15;70.71;100864.53;5097954;28;20413;-82
2021/01/08 07:48:20;;;;;;;20.33;14.10;;;;;;;4.11;70.41;100867.84;5098053;28;20484;-82
2021/01/08 07:50:53;;;;;;;18.93;13.87;;;;;;;3.68;71.33;100877.38;5097572;28;20410;-81
2021/01/08 07:56:20;;;;;;;21.00;14.50;;;;;;;3.98;70.74;100871.66;5097947;28;20452;-81
2021/01/08 07:59:09;;;;;;;20.47;14.10;;;;;;;4.26;70.55;100875.28;5098178;28;20465;-78
2021/01/08 08:01:36;;;;;;;22.20;14.40;;;;;;;3.95;70.66;100874.13;5098294;28;20680;-81
2021/01/08 08:04:05;;;;;;;21.03;14.70;;;;;;;4.44;70.04;100877.69;5098052;28;20422;-79
2021/01/08 08:06:31;;;;;;;21.07;15.07;;;;;;;4.55;68.90;100885.81;5100384;28;20464;-79
2021/01/08 08:09:02;;;;;;;21.10;14.37;;;;;;;4.59;68.85;100884.19;5101515;28;20453;-80
2021/01/08 08:11:29;;;;;;;20.70;14.67;;;;;;;4.44;69.57;100888.00;5101028;28;20681;-80
2021/01/08 08:13:55;;;;;;;22.00;14.93;;;;;;;4.39;69.28;100881.78;5101837;28;20410;-80
2021/01/08 08:16:34;;;;;;;18.50;13.30;;;;;;;4.08;69.60;100893.53;5101918;28;20818;-80
2021/01/08 08:18:59;;;;;;;25.23;16.00;;;;;;;4.34;68.88;100880.72;5101662;28;20168;-81
2021/01/08 08:21:26;;;;;;;18.50;13.90;;;;;;;4.59;68.26;100894.53;5101380;28;20533;-80
2021/01/08 08:23:52;;;;;;;25.67;15.57;;;;;;;4.54;68.88;100899.53;5101355;28;20223;-80
2021/01/08 08:26:18;;;;;;;20.80;14.53;;;;;;;4.17;70.05;100901.63;5101255;28;20827;-79
2021/01/08 08:28:44;;;;;;;22.27;15.10;;;;;;;4.51;69.34;100904.59;5105167;28;20471;-81
2021/01/08 08:31:09;;;;;;;19.47;14.33;;;;;;;4.60;69.13;100904.94;5117251;28;20194;-77
2021/01/08 08:33:34;;;;;;;23.43;14.70;;;;;;;4.15;69.93;100905.81;5117942;28;20234;-79
2021/01/08 08:36:00;;;;;;;22.10;14.67;;;;;;;4.42;69.27;100906.84;5101310;28;20200;-80
2021/01/08 08:38:25;;;;;;;22.93;15.57;;;;;;;4.58;69.03;100906.56;5100880;28;20176;-80
2021/01/08 08:40:50;;;;;;;23.23;15.53;;;;;;;4.43;69.19;100914.63;5101293;28;20251;-80
2021/01/08 08:43:21;;;;;;;22.10;15.20;;;;;;;4.33;69.36;100908.25;5107013;28;20183;-80
2021/01/08 08:45:47;;;;;;;20.67;15.30;;;;;;;4.42;69.55;100910.28;5115515;28;20171;-79
2021/01/08 08:48:13;;;;;;;20.87;14.33;;;;;;;4.68;68.48;100913.84;5116169;28;20442;-79
2021/01/08 08:50:43;;;;;;;23.07;17.00;;;;;;;4.68;67.96;100916.44;5139980;27;20151;-80
2021/01/08 08:53:15;;;;;;;20.90;14.70;;;;;;;4.86;67.32;100908.44;5138014;27;20467;-80
2021/01/08 08:55:41;;;;;;;26.93;15.57;;;;;;;4.81;67.81;100916.88;5138641;27;20443;-78
2021/01/08 08:58:09;;;;;;;20.53;14.63;;;;;;;4.59;68.68;100923.84;5123560;27;20837;-76
2021/01/08 09:00:37;;;;;;;23.83;15.40;;;;;;;4.54;69.36;100926.22;5102652;28;20430;-79
2021/01/08 09:03:24;;;;;;;20.00;14.50;;;;;;;3.84;70.31;100937.28;5102264;28;20424;-78
2021/01/08 09:05:51;;;;;;;21.10;15.67;;;;;;;3.50;71.87;100936.78;5121080;28;20433;-78
2021/01/08 09:08:24;;;;;;;21.43;15.00;;;;;;;4.36;69.28;100930.72;5126369;28;20491;-76
2021/01/08 09:11:09;;;;;;;20.67;14.53;;;;;;;4.70;67.88;100937.13;5128296;28;20405;-76
2021/01/08 09:13:57;;;;;;;23.73;15.93;;;;;;;4.76;67.86;100944.22;5121084;28;20461;-79
2021/01/08 09:16:25;;;;;;;22.27;14.20;;;;;;;4.73;67.90;100945.00;5120040;28;20429;-79
2021/01/08 09:19:00;;;;;;;19.90;14.27;;;;;;;4.53;68.40;100945.16;5121078;28;20421;-79
2021/01/08 09:21:31;;;;;;;20.90;14.20;;;;;;;4.96;67.56;100950.97;5121008;28;20485;-79
2021/01/08 09:24:02;;;;;;;22.87;14.70;;;;;;;4.67;67.92;100948.22;5120020;28;20500;-80
2021/01/08 09:26:30;;;;;;;22.80;15.50;;;;;;;4.77;67.71;100949.44;5120714;28;20420;-80
2021/01/08 09:28:55;;;;;;;19.77;13.97;;;;;;;4.91;66.88;100949.94;5119965;28;20473;-81
2021/01/08 09:31:37;;;;;;;20.77;15.73;;;;;;;4.63;68.31;100948.94;5117509;28;22130;-78
2021/01/08 09:34:02;;;;;;;21.10;15.13;;;;;;;5.16;66.02;100958.59;5102864;28;20490;-76
2021/01/08 09:36:29;;;;;;;19.00;14.20;;;;;;;4.89;66.71;100960.22;5102779;28;20509;-79
2021/01/08 09:38:58;;;;;;;21.07;14.80;;;;;;;4.92;66.49;100961.16;5106438;28;20220;-77
2021/01/08 09:41:24;;;;;;;17.53;13.23;;;;;;;4.64;67.99;100950.72;5119609;28;20473;-77
2021/01/08 09:43:57;;;;;;;20.20;14.47;;;;;;;4.33;68.36;100952.13;5119699;28;20397;-80
2021/01/08 09:46:22;;;;;;;18.40;13.87;;;;;;;4.45;68.04;100951.72;5119132;28;20217;-76
2021/01/08 09:48:47;;;;;;;19.53;13.53;;;;;;;4.48;68.58;100948.34;5120034;28;20866;-76
2021/01/08 09:51:12;;;;;;;19.27;13.40;;;;;;;4.16;69.85;100958.34;5120190;28;20163;-75
2021/01/08 09:53:38;;;;;;;18.10;13.40;;;;;;;3.73;71.12;100956.63;5119167;28;20203;-74
2021/01/08 09:56:29;;;;;;;18.40;13.70;;;;;;;4.28;70.99;100953.66;5119478;28;20659;-75
2021/01/08 09:59:15;;;;;;;17.20;13.23;;;;;;;4.31;69.61;100952.88;5117947;27;20190;-75
2021/01/08 10:02:04;;;;;;;21.97;16.00;;;;;;;4.67;68.88;100957.69;5099358;28;20460;-77
2021/01/08 10:04:34;;;;;;;17.33;13.70;;;;;;;4.44;68.82;100961.97;5102816;28;21027;-78
2021/01/08 10:07:00;;;;;;;21.10;13.37;;;;;;;4.65;68.41;100964.50;5110148;28;20521;-74
2021/01/08 10:09:26;;;;;;;19.27;13.97;;;;;;;4.19;69.79;100956.75;5097917;28;20489;-74
2021/01/08 10:12:00;;;;;;;19.10;14.20;;;;;;;3.89;71.32;100964.16;5097848;28;20500;-73
2021/01/08 10:14:32;;;;;;;19.97;14.70;;;;;;;3.80;71.66;100962.09;5116171;28;20213;-78
2021/01/08 10:17:16;;;;;;;17.50;14.07;;;;;;;3.94;71.24;100960.06;5115713;28;20425;-73
2021/01/08 10:19:44;;;;;;;20.00;13.40;;;;;;;3.60;71.49;100971.59;5108249;28;20694;-74
2021/01/08 10:22:09;;;;;;;19.97;14.03;;;;;;;4.54;69.50;100959.78;5107610;28;20425;-71
2021/01/08 10:24:35;;;;;;;19.80;14.20;;;;;;;4.14;69.13;100957.38;5101343;28;20864;-71
2021/01/08 10:27:01;;;;;;;20.70;14.30;;;;;;;4.11;69.91;100962.44;5117151;28;20180;-71
2021/01/08 10:29:39;;;;;;;19.07;14.37;;;;;;;4.18;70.11;100962.75;5115550;28;20214;-71
2021/01/08 10:32:08;;;;;;;16.17;13.03;;;;;;;4.50;69.79;100957.91;5118308;28;20198;-75
2021/01/08 10:34:38;;;;;;;21.03;14.40;;;;;;;4.37;69.47;100963.44;5107378;28;20426;-75
2021/01/08 10:37:03;;;;;;;19.07;14.27;;;;;;;4.43;69.21;100968.84;5098211;28;20410;-76
2021/01/08 10:39:29;;;;;;;20.80;15.77;;;;;;;4.20;70.12;100957.63;5097832;28;20441;-75
2021/01/08 10:41:54;;;;;;;19.70;14.77;;;;;;;4.41;69.51;100961.84;5098231;28;20171;-74
2021/01/08 10:44:19;;;;;;;20.57;14.67;;;;;;;4.34;69.74;100964.22;5097903;28;20184;-75
2021/01/08 10:46:44;;;;;;;19.37;14.07;;;;;;;4.19;69.86;100968.75;5097812;28;20183;-76
2021/01/08 10:49:10;;;;;;;18.50;14.67;;;;;;;5.00;68.45;100963.19;5098319;28;20242;-75
2021/01/08 10:51:35;;;;;;;20.97;15.17;;;;;;;4.73;67.04;100970.81;5097676;28;20211;-75
2021/01/08 10:54:00;;;;;;;19.03;15.00;;;;;;;4.61;68.47;100966.06;5097342;28;20184;-75
2021/01/08 10:56:28;;;;;;;23.10;14.90;;;;;;;4.80;67.93;100969.34;5098004;28;20192;-76
2021/01/08 10:58:53;;;;;;;17.90;13.40;;;;;;;4.81;67.77;100959.06;5097683;28;20224;-76
2021/01/08 11:01:19;;;;;;;17.60;14.13;;;;;;;5.15;66.50;100962.84;5097531;28;20418;-73
2021/01/08 11:03:44;;;;;;;17.40;13.60;;;;;;;4.60;68.37;100972.06;5097543;28;20160;-80
2021/01/08 11:06:18;;;;;;;15.80;12.17;;;;;;;4.97;66.83;100963.09;5103620;28;20191;-80
2021/01/08 11:08:43;;;;;;;22.00;14.37;;;;;;;4.61;67.53;100967.78;5097133;28;20219;-80
2021/01/08 11:11:09;;;;;;;16.90;13.03;;;;;;;4.38;68.75;100968.69;5098395;28;20422;-81
2021/01/08 11:13:35;;;;;;;17.13;12.70;;;;;;;4.34;68.45;100963.31;5107164;28;20548;-72
2021/01/08 11:16:00;;;;;;;15.20;11.80;;;;;;;4.21;67.86;100969.72;5107402;28;20448;-74
2021/01/08 11:18:25;;;;;;;14.10;10.90;;;;;;;4.37;67.90;100963.44;5101906;28;20183;-76
2021/01/08 11:20:51;;;;;;;16.20;12.50;;;;;;;3.99;69.86;100966.28;5113152;28;20195;-76
2021/01/08 11:23:16;;;;;;;16.93;12.67;;;;;;;4.29;69.17;100972.56;5117673;28;20216;-75
2021/01/08 11:25:42;;;;;;;19.37;14.27;;;;;;;4.41;68.57;100967.91;5112320;28;20184;-73
2021/01/08 11:28:07;;;;;;;20.40;12.93;;;;;;;4.14;69.73;100976.34;5097270;28;20200;-75